createdAt,value
2023-03-18T00:00:47.689Z,96167.00
2023-03-18T00:03:17.532Z,96164.63
2023-03-18T00:05:45.626Z,96161.13
2023-03-18T00:08:13.671Z,96162.88
2023-03-18T00:10:41.487Z,96163.69
2023-03-18T00:13:10.491Z,96161.81
2023-03-18T00:15:38.362Z,96171.66
2023-03-18T00:18:06.575Z,96173.03
2023-03-18T00:20:39.495Z,96178.28
2023-03-18T00:23:08.776Z,96184.41
2023-03-18T00:25:37.716Z,96184.41
2023-03-18T00:28:06.455Z,96189.06
2023-03-18T00:30:34.777Z,96192.28
2023-03-18T00:33:02.639Z,96190.34
2023-03-18T00:35:31.416Z,96184.69
2023-03-18T00:38:00.780Z,96195.13
2023-03-18T00:40:42.990Z,96191.50
2023-03-18T00:43:12.598Z,96201.81
2023-03-18T00:45:42.714Z,96202.41
2023-03-18T00:48:11.141Z,96201.19
2023-03-18T00:50:39.012Z,96203.69
2023-03-18T00:53:08.313Z,96202.59
2023-03-18T00:55:36.145Z,96200.81
2023-03-18T00:58:04.172Z,96201.25
2023-03-18T01:00:32.311Z,96202.22
2023-03-18T01:03:00.392Z,96207.47
2023-03-18T01:05:34.139Z,96212.66
2023-03-18T01:08:03.117Z,96214.84
2023-03-18T01:10:33.454Z,96214.84
2023-03-18T01:13:02.003Z,96213.16
2023-03-18T01:15:30.371Z,96215.66
2023-03-18T01:17:58.472Z,96208.72
2023-03-18T01:20:27.512Z,96200.66
2023-03-18T01:22:58.524Z,96204.72
2023-03-18T01:25:28.738Z,96195.00
2023-03-18T01:27:58.318Z,96198.72
2023-03-18T01:30:26.397Z,96200.41
2023-03-18T01:32:55.625Z,96200.28
2023-03-18T01:35:23.852Z,96195.72
2023-03-18T01:37:53.375Z,96201.25
2023-03-18T01:40:22.888Z,96195.81
2023-03-18T01:42:57.087Z,96197.75
2023-03-18T01:45:30.169Z,96199.56
2023-03-18T01:48:01.273Z,96201.25
2023-03-18T01:50:33.288Z,96202.22
2023-03-18T01:53:07.885Z,96199.56
2023-03-18T01:55:38.106Z,96200.41
2023-03-18T01:58:11.335Z,96198.63
2023-03-18T02:00:46.003Z,96185.41
2023-03-18T02:03:14.043Z,96177.50
2023-03-18T02:05:44.338Z,96180.13
2023-03-18T02:08:12.841Z,96186.69
2023-03-18T02:10:40.943Z,96185.03
2023-03-18T02:13:12.487Z,96183.22
2023-03-18T02:15:48.594Z,96186.81
2023-03-18T02:18:20.183Z,96189.47
2023-03-18T02:21:01.817Z,96201.00
2023-03-18T02:23:43.466Z,96198.47
2023-03-18T02:26:18.655Z,96196.69
2023-03-18T02:28:50.390Z,96197.75
2023-03-18T02:31:20.361Z,96195.38
2023-03-18T02:33:48.735Z,96194.81
2023-03-18T02:36:22.490Z,96194.81
2023-03-18T02:38:53.870Z,96198.41
2023-03-18T02:41:28.609Z,96190.63
2023-03-18T02:43:59.117Z,96195.91
2023-03-18T02:46:37.144Z,96198.06
2023-03-18T02:49:07.702Z,96196.06
2023-03-18T02:51:37.505Z,96197.44
2023-03-18T02:54:10.171Z,96208.09
2023-03-18T02:56:38.739Z,96197.09
2023-03-18T02:59:08.358Z,96191.22
2023-03-18T03:01:38.685Z,96199.28
2023-03-18T03:04:07.901Z,96205.28
2023-03-18T03:06:36.780Z,96208.59
2023-03-18T03:09:05.964Z,96206.81
2023-03-18T03:11:36.340Z,96210.28
2023-03-18T03:14:14.196Z,96206.09
2023-03-18T03:16:43.688Z,96210.66
2023-03-18T03:19:12.351Z,96218.94
2023-03-18T03:21:40.183Z,96220.88
2023-03-18T03:24:09.889Z,96222.22
2023-03-18T03:26:40.912Z,96219.69
2023-03-18T03:29:08.939Z,96219.25
2023-03-18T03:31:38.225Z,96223.19
2023-03-18T03:34:07.697Z,96222.63
2023-03-18T03:36:36.560Z,96224.06
2023-03-18T03:39:06.177Z,96220.72
2023-03-18T03:41:36.316Z,96226.25
2023-03-18T03:44:04.773Z,96220.16
2023-03-18T03:46:32.890Z,96231.78
2023-03-18T03:49:02.640Z,96228.91
2023-03-18T03:51:30.660Z,96224.09
2023-03-18T03:53:59.135Z,96221.97
2023-03-18T03:56:27.142Z,96218.38
2023-03-18T03:58:55.063Z,96221.97
2023-03-18T04:01:28.271Z,96229.16
2023-03-18T04:03:58.939Z,96230.47
2023-03-18T04:06:28.260Z,96230.72
2023-03-18T04:09:02.015Z,96222.66
2023-03-18T04:11:29.976Z,96229.13
2023-03-18T04:13:58.204Z,96230.19
2023-03-18T04:16:28.483Z,96232.09
2023-03-18T04:18:56.345Z,96225.06
2023-03-18T04:21:25.433Z,96229.84
2023-03-18T04:23:58.095Z,96227.34
2023-03-18T04:26:27.218Z,96232.34
2023-03-18T04:28:59.249Z,96225.53
2023-03-18T04:31:28.440Z,96224.34
2023-03-18T04:33:57.385Z,96227.22
2023-03-18T04:36:25.261Z,96235.81
2023-03-18T04:38:54.211Z,96237.00
2023-03-18T04:41:24.900Z,96230.53
2023-03-18T04:43:54.958Z,96233.75
2023-03-18T04:46:29.971Z,96238.41
2023-03-18T04:48:58.428Z,96242.00
2023-03-18T04:51:27.433Z,96240.78
2023-03-18T04:53:56.486Z,96234.81
2023-03-18T04:56:29.460Z,96239.09
2023-03-18T04:58:59.164Z,96237.19
2023-03-18T05:01:31.475Z,96235.63
2023-03-18T05:03:59.679Z,96230.97
2023-03-18T05:06:37.279Z,96233.69
2023-03-18T05:09:10.232Z,96238.34
2023-03-18T05:11:39.499Z,96241.94
2023-03-18T05:14:15.598Z,96245.34
2023-03-18T05:16:47.532Z,96247.88
2023-03-18T05:19:15.701Z,96248.44
2023-03-18T05:21:51.117Z,96248.16
2023-03-18T05:24:20.167Z,96249.97
2023-03-18T05:26:49.560Z,96250.94
2023-03-18T05:29:19.686Z,96257.69
2023-03-18T05:32:08.133Z,96253.50
2023-03-18T05:34:37.831Z,96249.31
2023-03-18T05:37:08.793Z,96252.03
2023-03-18T05:39:39.332Z,96252.28
2023-03-18T05:42:14.194Z,96248.69
2023-03-18T05:44:44.583Z,96252.03
2023-03-18T05:47:15.026Z,96257.94
2023-03-18T05:49:57.544Z,96253.44
2023-03-18T05:52:26.189Z,96254.16
2023-03-18T05:55:01.077Z,96252.50
2023-03-18T05:57:34.778Z,96258.59
2023-03-18T06:00:07.056Z,96255.34
2023-03-18T06:02:44.916Z,96258.19
2023-03-18T06:05:14.554Z,96254.59
2023-03-18T06:07:43.123Z,96258.69
2023-03-18T06:10:12.302Z,96256.06
2023-03-18T06:12:42.413Z,96258.19
2023-03-18T06:15:12.240Z,96263.16
2023-03-18T06:17:41.206Z,96269.03
2023-03-18T06:20:11.754Z,96267.72
2023-03-18T06:22:40.053Z,96272.72
2023-03-18T06:25:10.063Z,96273.34
2023-03-18T06:27:41.974Z,96275.88
2023-03-18T06:30:11.269Z,96274.81
2023-03-18T06:32:41.288Z,96272.06
2023-03-18T06:35:10.511Z,96279.97
2023-03-18T06:37:40.025Z,96284.25
2023-03-18T06:40:10.578Z,96277.00
2023-03-18T06:42:39.180Z,96277.09
2023-03-18T06:45:15.306Z,96270.78
2023-03-18T06:47:55.417Z,96272.13
2023-03-18T06:50:24.382Z,96274.13
2023-03-18T06:52:52.454Z,96280.97
2023-03-18T06:55:26.429Z,96271.34
2023-03-18T06:57:54.432Z,96273.63
2023-03-18T07:00:29.075Z,96274.84
2023-03-18T07:02:56.987Z,96270.97
2023-03-18T07:05:27.423Z,96279.22
2023-03-18T07:07:56.813Z,96273.16
2023-03-18T07:10:29.719Z,96279.53
2023-03-18T07:13:11.060Z,96275.97
2023-03-18T07:15:42.856Z,96279.59
2023-03-18T07:18:12.234Z,96276.41
2023-03-18T07:20:40.505Z,96273.16
2023-03-18T07:23:08.454Z,96278.56
2023-03-18T07:25:36.714Z,96284.69
2023-03-18T07:28:05.732Z,96289.03
2023-03-18T07:30:34.915Z,96284.03
2023-03-18T07:33:05.736Z,96287.72
2023-03-18T07:35:33.938Z,96285.91
2023-03-18T07:38:02.081Z,96288.81
2023-03-18T07:40:29.974Z,96293.94
2023-03-18T07:42:57.854Z,96296.19
2023-03-18T07:45:25.764Z,96292.72
2023-03-18T07:47:54.497Z,96295.34
2023-03-18T07:50:23.777Z,96285.59
2023-03-18T07:52:52.065Z,96285.69
2023-03-18T07:55:20.019Z,96285.78
2023-03-18T07:57:49.134Z,96289.31
2023-03-18T08:00:18.446Z,96297.19
2023-03-18T08:02:46.366Z,96296.56
2023-03-18T08:05:15.822Z,96295.34
2023-03-18T08:07:45.097Z,96301.41
2023-03-18T08:10:14.897Z,96298.50
2023-03-18T08:12:52.509Z,96296.63
2023-03-18T08:15:22.236Z,96302.97
2023-03-18T08:17:50.244Z,96303.88
2023-03-18T08:20:18.388Z,96300.72
2023-03-18T08:22:48.519Z,96303.31
2023-03-18T08:25:16.536Z,96309.72
2023-03-18T08:27:44.694Z,96301.84
2023-03-18T08:30:13.781Z,96302.03
2023-03-18T08:32:41.997Z,96299.44
2023-03-18T08:35:11.229Z,96302.50
2023-03-18T08:37:39.082Z,96309.38
2023-03-18T08:40:09.859Z,96298.09
2023-03-18T08:42:37.755Z,96298.28
2023-03-18T08:45:06.515Z,96300.09
2023-03-18T08:47:34.376Z,96293.00
2023-03-18T08:50:02.348Z,96288.97
2023-03-18T08:52:30.843Z,96288.31
2023-03-18T08:54:58.749Z,96281.47
2023-03-18T08:57:28.222Z,96283.31
2023-03-18T08:59:56.037Z,96281.38
2023-03-18T09:02:23.825Z,96278.00
2023-03-18T09:04:51.691Z,96281.06
2023-03-18T09:07:19.697Z,96282.47
2023-03-18T09:09:47.706Z,96286.78
2023-03-18T09:12:16.310Z,96288.09
2023-03-18T09:14:45.554Z,96284.44
2023-03-18T09:17:14.618Z,96274.00
2023-03-18T09:19:42.486Z,96278.84
2023-03-18T09:22:10.425Z,96274.91
2023-03-18T09:24:38.494Z,96262.94
2023-03-18T09:27:07.489Z,96268.22
2023-03-18T09:29:35.432Z,96265.97
2023-03-18T09:32:05.927Z,96267.81
2023-03-18T09:34:34.976Z,96268.06
2023-03-18T09:37:02.758Z,96262.88
2023-03-18T09:39:30.630Z,96269.56
2023-03-18T09:42:14.220Z,96265.50
2023-03-18T09:44:43.608Z,96266.06
2023-03-18T09:47:43.295Z,96256.91
2023-03-18T09:50:22.767Z,96263.44
2023-03-18T09:52:59.687Z,96257.97
2023-03-18T09:55:35.715Z,96250.81
2023-03-18T09:58:07.960Z,96254.19
2023-03-18T10:00:39.248Z,96247.28
2023-03-18T10:03:15.892Z,96247.69
2023-03-18T10:05:51.046Z,96252.03
2023-03-18T10:08:26.573Z,96249.44
2023-03-18T10:10:54.525Z,96249.38
2023-03-18T10:13:27.078Z,96246.97
2023-03-18T10:15:57.715Z,96243.25
2023-03-18T10:18:32.062Z,96244.91
2023-03-18T10:21:14.060Z,96241.91
2023-03-18T10:23:50.728Z,96242.72
2023-03-18T10:26:24.222Z,96245.44
2023-03-18T10:29:28.411Z,96253.69
2023-03-18T10:32:09.454Z,96256.03
2023-03-18T10:34:42.878Z,96257.09
2023-03-18T10:37:20.109Z,96250.03
2023-03-18T10:39:49.428Z,96250.13
2023-03-18T10:42:21.944Z,96247.16
2023-03-18T10:44:51.428Z,96245.22
2023-03-18T10:47:23.366Z,96244.38
2023-03-18T10:50:04.488Z,96242.13
2023-03-18T10:52:37.071Z,96238.91
2023-03-18T10:55:05.929Z,96241.19
2023-03-18T10:57:33.746Z,96234.88
2023-03-18T11:00:01.710Z,96239.75
2023-03-18T11:02:34.203Z,96238.81
2023-03-18T11:05:07.909Z,96240.19
2023-03-18T11:07:36.085Z,96224.94
2023-03-18T11:10:18.091Z,96228.97
2023-03-18T11:12:46.186Z,96221.34
2023-03-18T11:15:14.660Z,96217.69
2023-03-18T11:17:43.411Z,96223.66
2023-03-18T11:20:25.257Z,96216.66
2023-03-18T11:22:57.494Z,96215.00
2023-03-18T11:25:29.208Z,96221.38
2023-03-18T11:28:00.350Z,96214.31
2023-03-18T11:30:34.645Z,96214.41
2023-03-18T11:33:08.086Z,96215.38
2023-03-18T11:35:41.817Z,96207.88
2023-03-18T11:38:16.634Z,96206.81
2023-03-18T11:40:44.836Z,96199.31
2023-03-18T11:43:20.041Z,96205.06
2023-03-18T11:45:52.382Z,96206.56
2023-03-18T11:48:30.366Z,96197.75
2023-03-18T11:51:24.605Z,96195.91
2023-03-18T11:54:06.790Z,96202.34
2023-03-18T11:56:36.256Z,96199.41
2023-03-18T11:59:42.766Z,96198.59
2023-03-18T12:02:32.145Z,96193.06
2023-03-18T12:05:24.696Z,96189.94
2023-03-18T12:08:04.225Z,96187.06
2023-03-18T12:10:36.235Z,96184.69
2023-03-18T12:13:14.476Z,96176.25
2023-03-18T12:15:53.164Z,96175.88
2023-03-18T12:18:39.092Z,96172.50
2023-03-18T12:21:27.851Z,96172.66
2023-03-18T12:24:09.218Z,96167.66
2023-03-18T12:26:46.524Z,96166.03
2023-03-18T12:29:42.466Z,96169.97
2023-03-18T12:32:20.579Z,96164.53
2023-03-18T12:35:20.687Z,96161.31
2023-03-18T12:38:03.881Z,96158.38
2023-03-18T12:40:48.789Z,96161.38
2023-03-18T12:43:28.513Z,96156.41
2023-03-18T12:46:02.475Z,96160.06
2023-03-18T12:48:43.775Z,96155.09
2023-03-18T12:51:15.289Z,96154.06
2023-03-18T12:53:46.518Z,96145.06
2023-03-18T12:56:19.807Z,96146.56
2023-03-18T12:58:52.247Z,96148.94
2023-03-18T13:01:24.679Z,96142.78
2023-03-18T13:03:58.272Z,96140.44
2023-03-18T13:06:31.913Z,96130.50
2023-03-18T13:09:06.713Z,96137.84
2023-03-18T13:11:47.372Z,96132.81
2023-03-18T13:14:23.265Z,96124.53
2023-03-18T13:16:52.800Z,96125.00
2023-03-18T13:19:20.750Z,96131.34
2023-03-18T13:21:53.738Z,96126.88
2023-03-18T13:24:46.824Z,96141.84
2023-03-18T13:27:46.743Z,96133.19
2023-03-18T13:30:25.810Z,96129.00
2023-03-18T13:33:20.977Z,96135.19
2023-03-18T13:36:20.473Z,96129.19
2023-03-18T13:39:06.655Z,96135.50
2023-03-18T13:41:56.500Z,96133.38
2023-03-18T13:44:38.886Z,96142.34
2023-03-18T13:47:10.338Z,96140.00
2023-03-18T13:49:39.623Z,96129.53
2023-03-18T13:52:24.328Z,96132.53
2023-03-18T13:54:52.685Z,96125.22
2023-03-18T13:57:35.781Z,96124.06
2023-03-18T14:00:33.460Z,96124.53
2023-03-18T14:03:21.895Z,96120.03
2023-03-18T14:05:51.558Z,96123.22
2023-03-18T14:08:35.784Z,96119.22
2023-03-18T14:11:50.008Z,96117.56
2023-03-18T14:14:54.823Z,96113.91
2023-03-18T14:17:47.713Z,96115.88
2023-03-18T14:20:25.795Z,96125.38
2023-03-18T14:22:55.075Z,96126.22
2023-03-18T14:25:42.630Z,96119.53
2023-03-18T14:28:20.524Z,96122.03
2023-03-18T14:30:56.723Z,96114.88
2023-03-18T14:33:34.455Z,96121.69
2023-03-18T14:36:10.285Z,96105.56
2023-03-18T14:38:50.501Z,96114.22
2023-03-18T14:41:23.894Z,96108.06
2023-03-18T14:44:02.364Z,96104.91
2023-03-18T14:46:34.901Z,96097.56
2023-03-18T14:49:25.451Z,96100.22
2023-03-18T14:51:55.248Z,96093.56
2023-03-18T14:54:27.127Z,96099.06
2023-03-18T14:56:56.663Z,96096.44
2023-03-18T14:59:26.382Z,96095.88
2023-03-18T15:01:55.588Z,96096.56
2023-03-18T15:04:26.681Z,96098.22
2023-03-18T15:06:56.567Z,96102.53
2023-03-18T15:09:27.449Z,96095.88
2023-03-18T15:11:55.861Z,96099.56
2023-03-18T15:14:27.059Z,96103.53
2023-03-18T15:16:55.841Z,96101.91
2023-03-18T15:19:26.806Z,96096.06
2023-03-18T15:21:55.759Z,96095.38
2023-03-18T15:24:26.951Z,96088.41
2023-03-18T15:26:59.011Z,96090.91
2023-03-18T15:29:29.498Z,96086.25
2023-03-18T15:32:10.377Z,96078.25
2023-03-18T15:34:43.689Z,96076.25
2023-03-18T15:37:36.183Z,96081.25
2023-03-18T15:40:30.800Z,96084.22
2023-03-18T15:43:04.186Z,96083.75
2023-03-18T15:45:32.980Z,96079.75
2023-03-18T15:48:08.231Z,96081.59
2023-03-18T15:50:38.261Z,96082.25
2023-03-18T15:53:19.475Z,96078.59
2023-03-18T15:55:50.142Z,96088.06
2023-03-18T15:58:23.919Z,96096.25
2023-03-18T16:00:54.226Z,96098.38
2023-03-18T16:03:25.320Z,96093.72
2023-03-18T16:05:55.228Z,96093.88
2023-03-18T16:08:24.050Z,96098.53
2023-03-18T16:10:54.697Z,96098.22
2023-03-18T16:13:25.508Z,96096.88
2023-03-18T16:15:54.188Z,96097.19
2023-03-18T16:18:22.801Z,96099.88
2023-03-18T16:20:51.120Z,96101.03
2023-03-18T16:23:20.704Z,96111.34
2023-03-18T16:25:50.767Z,96107.00
2023-03-18T16:28:22.109Z,96116.28
2023-03-18T16:30:52.150Z,96116.63
2023-03-18T16:33:21.650Z,96124.75
2023-03-18T16:35:56.694Z,96123.75
2023-03-18T16:38:26.715Z,96131.91
2023-03-18T16:40:55.456Z,96131.38
2023-03-18T16:43:26.964Z,96139.84
2023-03-18T16:45:58.510Z,96140.03
2023-03-18T16:48:28.087Z,96135.16
2023-03-18T16:50:57.883Z,96140.63
2023-03-18T16:53:29.939Z,96141.91
2023-03-18T16:56:00.227Z,96146.91
2023-03-18T16:58:31.067Z,96145.53
2023-03-18T17:00:59.963Z,96153.00
2023-03-18T17:03:29.328Z,96146.19
2023-03-18T17:05:57.498Z,96156.63
2023-03-18T17:08:27.121Z,96159.91
2023-03-18T17:10:58.345Z,96159.69
2023-03-18T17:13:29.125Z,96161.16
2023-03-18T17:15:57.013Z,96162.63
2023-03-18T17:18:26.172Z,96174.56
2023-03-18T17:20:54.036Z,96167.88
2023-03-18T17:23:26.707Z,96175.63
2023-03-18T17:25:59.225Z,96180.44
2023-03-18T17:28:35.537Z,96181.06
2023-03-18T17:31:03.749Z,96180.00
2023-03-18T17:33:33.861Z,96176.97
2023-03-18T17:36:02.648Z,96179.25
2023-03-18T17:38:32.277Z,96180.69
2023-03-18T17:41:03.788Z,96185.63
2023-03-18T17:43:33.828Z,96184.44
2023-03-18T17:46:03.669Z,96194.69
2023-03-18T17:48:32.963Z,96188.69
2023-03-18T17:51:03.527Z,96188.13
2023-03-18T17:53:33.988Z,96184.78
2023-03-18T17:56:04.734Z,96187.88
2023-03-18T17:58:34.087Z,96184.69
2023-03-18T18:01:06.566Z,96186.97
2023-03-18T18:03:36.880Z,96190.06
2023-03-18T18:06:06.763Z,96191.50
2023-03-18T18:08:36.112Z,96193.31
2023-03-18T18:11:20.041Z,96196.03
2023-03-18T18:13:49.081Z,96194.38
2023-03-18T18:16:17.843Z,96195.03
2023-03-18T18:18:48.241Z,96191.28
2023-03-18T18:21:20.398Z,96204.84
2023-03-18T18:23:48.681Z,96197.47
2023-03-18T18:26:21.388Z,96197.91
2023-03-18T18:28:51.048Z,96190.53
2023-03-18T18:31:21.023Z,96202.88
2023-03-18T18:33:50.462Z,96196.75
2023-03-18T18:36:18.690Z,96203.34
2023-03-18T18:38:46.978Z,96200.44
2023-03-18T18:41:15.282Z,96207.13
2023-03-18T18:43:44.659Z,96198.78
2023-03-18T18:46:14.957Z,96208.72
2023-03-18T18:48:49.800Z,96207.19
2023-03-18T18:51:20.327Z,96205.25
2023-03-18T18:53:49.011Z,96213.59
2023-03-18T18:56:19.869Z,96206.59
2023-03-18T18:58:49.585Z,96212.31
2023-03-18T19:01:18.349Z,96210.25
2023-03-18T19:03:46.867Z,96202.75
2023-03-18T19:06:25.877Z,96206.75
2023-03-18T19:08:55.158Z,96202.88
2023-03-18T19:11:24.651Z,96205.81
2023-03-18T19:13:55.153Z,96206.94
2023-03-18T19:16:37.226Z,96221.84
2023-03-18T19:19:05.141Z,96205.38
2023-03-18T19:21:33.736Z,96217.66
2023-03-18T19:24:02.222Z,96217.38
2023-03-18T19:26:30.285Z,96220.84
2023-03-18T19:29:00.044Z,96223.66
2023-03-18T19:31:30.704Z,96229.47
2023-03-18T19:34:00.439Z,96227.94
2023-03-18T19:36:31.541Z,96234.47
2023-03-18T19:39:01.184Z,96230.59
2023-03-18T19:41:29.709Z,96226.25
2023-03-18T19:44:03.892Z,96229.31
2023-03-18T19:46:37.017Z,96237.81
2023-03-18T19:49:10.441Z,96224.59
2023-03-18T19:51:38.473Z,96223.72
2023-03-18T19:54:21.164Z,96233.34
2023-03-18T19:56:49.207Z,96238.06
2023-03-18T19:59:23.250Z,96243.63
2023-03-18T20:01:52.117Z,96241.38
2023-03-18T20:04:21.580Z,96249.44
2023-03-18T20:06:50.432Z,96245.28
2023-03-18T20:09:18.812Z,96251.13
2023-03-18T20:11:47.041Z,96254.16
2023-03-18T20:14:28.160Z,96256.09
2023-03-18T20:16:58.846Z,96255.50
2023-03-18T20:19:26.757Z,96255.78
2023-03-18T20:21:55.209Z,96261.78
2023-03-18T20:24:29.742Z,96261.91
2023-03-18T20:26:58.344Z,96267.75
2023-03-18T20:29:28.367Z,96268.16
2023-03-18T20:31:58.937Z,96270.19
2023-03-18T20:34:27.122Z,96276.88
2023-03-18T20:36:55.254Z,96265.59
2023-03-18T20:39:24.090Z,96272.81
2023-03-18T20:41:51.926Z,96274.19
2023-03-18T20:44:19.800Z,96280.41
2023-03-18T20:46:49.036Z,96274.56
2023-03-18T20:49:17.131Z,96276.38
2023-03-18T20:51:45.584Z,96278.88
2023-03-18T20:54:18.705Z,96280.81
2023-03-18T20:56:46.942Z,96275.78
2023-03-18T20:59:14.913Z,96276.63
2023-03-18T21:01:42.984Z,96281.16
2023-03-18T21:04:13.803Z,96279.63
2023-03-18T21:06:42.110Z,96275.72
2023-03-18T21:09:12.316Z,96274.16
2023-03-18T21:11:40.567Z,96278.28
2023-03-18T21:14:08.557Z,96279.41
2023-03-18T21:16:38.015Z,96278.69
2023-03-18T21:19:05.916Z,96276.28
2023-03-18T21:21:39.217Z,96273.06
2023-03-18T21:24:23.703Z,96275.97
2023-03-18T21:27:03.763Z,96275.38
2023-03-18T21:29:32.886Z,96281.03
2023-03-18T21:32:02.434Z,96280.34
2023-03-18T21:34:30.496Z,96285.88
2023-03-18T21:36:59.806Z,96285.44
2023-03-18T21:39:27.811Z,96281.09
2023-03-18T21:41:56.167Z,96273.44
2023-03-18T21:44:24.032Z,96271.19
2023-03-18T21:46:52.001Z,96276.84
2023-03-18T21:49:19.878Z,96272.66
2023-03-18T21:51:47.725Z,96278.75
2023-03-18T21:54:19.784Z,96279.59
2023-03-18T21:56:47.680Z,96284.56
2023-03-18T21:59:15.514Z,96285.78
2023-03-18T22:01:43.375Z,96277.84
2023-03-18T22:04:12.210Z,96275.13
2023-03-18T22:06:40.115Z,96283.03
2023-03-18T22:09:08.713Z,96272.03
2023-03-18T22:11:37.977Z,96281.41
2023-03-18T22:14:05.809Z,96277.69
2023-03-18T22:16:33.640Z,96283.78
2023-03-18T22:19:01.496Z,96296.16
2023-03-18T22:21:29.617Z,96293.50
2023-03-18T22:23:58.230Z,96293.75
2023-03-18T22:26:26.276Z,96298.66
2023-03-18T22:28:55.596Z,96296.44
2023-03-18T22:31:26.394Z,96299.44
2023-03-18T22:33:55.307Z,96291.88
2023-03-18T22:36:25.440Z,96293.56
2023-03-18T22:38:53.481Z,96297.16
2023-03-18T22:41:23.124Z,96290.44
2023-03-18T22:43:51.717Z,96291.28
2023-03-18T22:46:21.089Z,96293.19
2023-03-18T22:48:49.004Z,96289.63
2023-03-18T22:51:24.108Z,96289.63
2023-03-18T22:53:53.791Z,96289.72
2023-03-18T22:56:23.098Z,96295.25
2023-03-18T22:58:51.435Z,96291.75
2023-03-18T23:01:27.493Z,96300.28
2023-03-18T23:03:55.732Z,96309.38
2023-03-18T23:06:24.852Z,96308.19
2023-03-18T23:08:52.763Z,96313.72
2023-03-18T23:11:20.798Z,96313.72
2023-03-18T23:13:50.796Z,96307.00
2023-03-18T23:16:22.036Z,96314.31
2023-03-18T23:18:51.074Z,96315.41
2023-03-18T23:21:21.968Z,96318.88
2023-03-18T23:23:50.095Z,96319.72
2023-03-18T23:26:18.399Z,96315.88
2023-03-18T23:28:46.556Z,96312.16
2023-03-18T23:31:14.782Z,96315.75
2023-03-18T23:33:44.519Z,96313.34
2023-03-18T23:36:13.321Z,96315.16
2023-03-18T23:38:41.283Z,96311.09
2023-03-18T23:41:09.242Z,96309.28
2023-03-18T23:43:37.253Z,96310.13
2023-03-18T23:46:05.309Z,96312.50
2023-03-18T23:48:33.181Z,96315.16
2023-03-18T23:51:02.446Z,96312.41
2023-03-18T23:53:30.316Z,96317.06
2023-03-18T23:55:58.194Z,96323.19
2023-03-18T23:58:26.058Z,96312.50
